Etusivu
METAR-TAF:

METAR-TAF

Lentoasemat :

Seyresse

Dax, Ranska

Leveyspiiri: 43-41N, Pituuspiiri: 001-04W, korkeus merenpinnasta: 32 m

Tämänhetkinen sää

Tämä raportti tehtiin 18 minuuttia sitten, kello 04.00 UTC
Tuuli 3 kn etelästä
Lämpötila 7°C
Kosteus 81%
Ilmanpaine 1020 hPa
Näkyvyys: 9000 m

METAR: LFBY 290400Z AUTO 18003KT 9000 // ////// 07/04 Q1020

Aika: 05:18 (04:18 UTC)

Sääennuste

Tämä raportti tehtiin 20 tuntia ja 18 minuuttia sitten, kello 08.00 UTC
Ennuste voimassa 28. päivästä klo 09 UTC - 28. päivään klo 18 UTC
Tuuli 10 kn lännestä puuskistuen 20 kn:hen
Näkyvyys 10 km tai enemmän
Hajonneita pilviä 2000 ft:n korkeudessa

TAF: LFBY 280800Z 2809/2818 27010G20KT 9999 BKN020

Säähavainnot ja -ennusteet yli 4000 lentoasemalta (METAR- ja TAF-raportit).

Käytössä olevat sääasemat on merkitty karttaan keltaisilla ja punaisilla pisteillä.

Aseta hiiri pisteen päälle nähdäksesi sääaseman nimen.

Klikkaa sitten nähdäksesi säähavainnot ja -ennusteet.

Kartan vaihtaminen: klikkaa mustalla rastilla varustettuja vihreitä pisteitä, niin voit zoomata sisään; viivalla varustettua vihreää pistettä, niin voit zoomata ulos tai vihreitä nuolia, niin pääset viereisille kartoille.


METAR-TAF: